Time;durP1;ratioP1;P1;durP2;ratioP2;P2;SDS_P1;SDS_P2;PMS_P1;PMS_P2;Temp;Humidity;BMP_temperature;BMP_pressure;BME280_temperature;BME280_humidity;BME280_pressure;Samples;Min_cycle;Max_cycle;Signal;HPM_P1;HPM_P2
2021/05/04 00:00:15;;;;;;;4.65;1.90;;;14.00;84.10;;;;;;5064584;28;20493;-74
2021/05/04 00:02:41;;;;;;;4.10;1.88;;;14.10;83.90;;;;;;5050816;28;20028;-73
2021/05/04 00:05:07;;;;;;;5.15;1.80;;;14.10;84.00;;;;;;5061475;28;20065;-73
2021/05/04 00:07:33;;;;;;;4.22;2.20;;;14.00;84.00;;;;;;5055436;28;20075;-74
2021/05/04 00:09:59;;;;;;;4.32;1.90;;;14.10;83.90;;;;;;5053454;28;20060;-73
2021/05/04 00:12:24;;;;;;;4.63;1.77;;;14.10;84.10;;;;;;5059570;28;20055;-74
2021/05/04 00:14:51;;;;;;;6.45;1.55;;;14.10;83.90;;;;;;5055928;28;20432;-73
2021/05/04 00:17:16;;;;;;;5.18;2.00;;;14.10;84.20;;;;;;5052230;28;20393;-73
2021/05/04 00:19:42;;;;;;;4.57;1.42;;;14.10;85.40;;;;;;5059230;28;20472;-73
2021/05/04 00:22:08;;;;;;;9.43;1.90;;;14.00;85.90;;;;;;5061028;28;20385;-73
2021/05/04 00:24:33;;;;;;;15.13;2.63;;;13.90;86.70;;;;;;5058837;28;20596;-73
2021/05/04 00:26:59;;;;;;;22.80;3.00;;;13.80;86.30;;;;;;5058819;28;20099;-74
2021/05/04 00:29:25;;;;;;;13.27;2.30;;;13.80;86.60;;;;;;5053804;28;20018;-74
2021/05/04 00:31:50;;;;;;;17.42;2.42;;;13.80;86.30;;;;;;5040616;28;20036;-74
2021/05/04 00:34:16;;;;;;;10.75;1.83;;;13.70;86.90;;;;;;5055886;28;20554;-73
2021/05/04 00:36:41;;;;;;;10.00;2.33;;;13.70;88.60;;;;;;5054473;28;20120;-74
2021/05/04 00:39:07;;;;;;;5.50;2.38;;;13.70;88.60;;;;;;5050457;28;20125;-74
2021/05/04 00:41:33;;;;;;;9.73;1.85;;;13.70;90.20;;;;;;5052690;28;20033;-74
2021/05/04 00:43:58;;;;;;;10.70;1.92;;;13.70;90.70;;;;;;5035827;28;20029;-73
2021/05/04 00:46:24;;;;;;;13.43;3.08;;;13.70;91.10;;;;;;5053994;28;20040;-73
2021/05/04 00:48:49;;;;;;;9.90;1.98;;;13.60;91.90;;;;;;5051837;28;20028;-74
2021/05/04 00:51:15;;;;;;;7.07;1.85;;;13.40;93.50;;;;;;5062084;28;20504;-73
2021/05/04 00:53:41;;;;;;;9.50;2.08;;;13.30;94.10;;;;;;5072192;28;20052;-72
2021/05/04 00:56:08;;;;;;;9.13;2.30;;;13.30;95.40;;;;;;5085417;28;20082;-73
2021/05/04 00:58:35;;;;;;;6.13;2.00;;;13.10;95.00;;;;;;5070112;28;20486;-72
2021/05/04 01:01:01;;;;;;;4.78;2.00;;;13.00;97.20;;;;;;5071991;28;20040;-72
2021/05/04 01:03:27;;;;;;;4.80;2.17;;;12.80;98.10;;;;;;5079203;28;20488;-72
2021/05/04 01:05:53;;;;;;;3.83;2.00;;;12.80;99.60;;;;;;5083945;28;20020;-72
2021/05/04 01:08:18;;;;;;;2.03;1.80;;;12.50;98.90;;;;;;5078577;28;20101;-73
2021/05/04 01:10:44;;;;;;;4.88;1.90;;;12.50;99.80;;;;;;5084759;28;20027;-73
2021/05/04 01:13:09;;;;;;;7.35;2.10;;;12.30;99.90;;;;;;5083397;28;20063;-73
2021/05/04 01:15:35;;;;;;;4.90;1.85;;;12.30;99.90;;;;;;5076453;28;20033;-73
2021/05/04 01:18:01;;;;;;;4.28;2.13;;;12.30;99.90;;;;;;5059695;28;20037;-73
2021/05/04 01:20:28;;;;;;;3.10;2.20;;;12.40;99.90;;;;;;5054775;28;20021;-73
2021/05/04 01:22:54;;;;;;;6.40;2.28;;;12.30;99.90;;;;;;5056719;28;20031;-73
2021/05/04 01:25:20;;;;;;;5.40;2.53;;;12.40;99.90;;;;;;5055110;28;20040;-73
2021/05/04 01:27:46;;;;;;;4.20;2.30;;;12.50;99.90;;;;;;5055075;28;20381;-73
2021/05/04 01:30:12;;;;;;;5.28;2.40;;;12.50;99.90;;;;;;5042797;28;20082;-74
2021/05/04 01:32:38;;;;;;;4.10;1.95;;;12.50;99.90;;;;;;5056073;28;20020;-74
2021/05/04 01:35:06;;;;;;;3.78;2.75;;;12.40;99.90;;;;;;5055414;28;20025;-73
2021/05/04 01:37:32;;;;;;;5.90;2.67;;;12.40;99.90;;;;;;5053517;28;20021;-73
2021/05/04 01:39:58;;;;;;;5.53;2.20;;;12.20;99.90;;;;;;5057760;28;20500;-73
2021/05/04 01:42:23;;;;;;;4.53;2.42;;;12.00;99.90;;;;;;5055127;28;20025;-73
2021/05/04 01:44:50;;;;;;;4.93;2.60;;;11.90;99.90;;;;;;5055189;28;20055;-73
2021/05/04 01:47:15;;;;;;;6.45;2.55;;;11.90;99.90;;;;;;5054254;28;20013;-73
2021/05/04 01:49:41;;;;;;;3.83;2.50;;;11.90;99.90;;;;;;5054788;28;20378;-74
2021/05/04 01:52:09;;;;;;;4.18;2.90;;;11.90;99.90;;;;;;5058597;28;20366;-74
2021/05/04 01:54:35;;;;;;;6.55;2.50;;;11.80;99.90;;;;;;5059030;28;20033;-73
2021/05/04 01:57:00;;;;;;;4.25;2.83;;;11.70;99.90;;;;;;5065471;28;20492;-73
2021/05/04 01:59:27;;;;;;;8.25;3.50;;;11.70;99.90;;;;;;5059037;28;20025;-73
2021/05/04 02:01:54;;;;;;;5.40;2.75;;;11.70;99.90;;;;;;5056461;28;20025;-73
2021/05/04 02:04:20;;;;;;;4.60;3.10;;;11.40;99.90;;;;;;5061765;28;20032;-73
2021/05/04 02:06:46;;;;;;;4.95;2.80;;;11.40;99.90;;;;;;5061036;28;20056;-73
2021/05/04 02:09:12;;;;;;;5.30;2.90;;;11.20;99.90;;;;;;5056845;28;20497;-73
2021/05/04 02:11:38;;;;;;;4.88;2.25;;;11.20;99.90;;;;;;5062624;28;20052;-73
2021/05/04 02:14:05;;;;;;;4.68;3.10;;;11.20;99.90;;;;;;5065542;28;20023;-72
2021/05/04 02:16:31;;;;;;;5.55;2.75;;;11.10;99.90;;;;;;5059930;28;20024;-73
2021/05/04 02:18:56;;;;;;;10.45;2.97;;;11.20;99.90;;;;;;5055725;28;20021;-72
2021/05/04 02:21:22;;;;;;;5.60;4.13;;;11.10;99.90;;;;;;5057146;28;20104;-72
2021/05/04 02:23:48;;;;;;;7.18;4.30;;;11.10;99.90;;;;;;5057572;28;20029;-72
2021/05/04 02:26:16;;;;;;;7.38;3.30;;;11.10;99.90;;;;;;5062876;28;20028;-73
2021/05/04 02:28:43;;;;;;;3.40;3.10;;;11.00;99.90;;;;;;5062144;28;20527;-73
2021/05/04 02:31:09;;;;;;;8.13;3.47;;;11.00;99.90;;;;;;5059609;28;20385;-73
2021/05/04 02:33:38;;;;;;;6.55;3.67;;;10.90;99.90;;;;;;5059477;28;20029;-72
2021/05/04 02:36:05;;;;;;;4.63;2.90;;;10.90;99.90;;;;;;5059262;28;20036;-73
2021/05/04 02:38:31;;;;;;;8.20;3.35;;;10.90;99.90;;;;;;5057959;28;20094;-72
2021/05/04 02:40:58;;;;;;;4.72;3.38;;;11.00;99.90;;;;;;5057639;28;20041;-73
2021/05/04 02:43:24;;;;;;;7.18;3.25;;;11.00;99.90;;;;;;5057016;28;20036;-73
2021/05/04 02:45:50;;;;;;;6.18;3.42;;;10.80;99.90;;;;;;5059605;28;20528;-73
2021/05/04 02:48:16;;;;;;;4.68;3.20;;;10.90;99.90;;;;;;5061617;28;20027;-73
2021/05/04 02:50:42;;;;;;;5.95;3.28;;;11.00;99.90;;;;;;5057555;28;20029;-73
2021/05/04 02:53:07;;;;;;;5.28;2.92;;;11.00;99.90;;;;;;5053004;28;20032;-72
2021/05/04 02:55:33;;;;;;;5.93;3.08;;;10.80;99.90;;;;;;5061289;28;20149;-71
2021/05/04 02:57:59;;;;;;;5.47;3.20;;;10.90;99.90;;;;;;5074950;28;20025;-72
2021/05/04 03:00:25;;;;;;;6.03;2.85;;;10.90;99.90;;;;;;5084501;28;20099;-72
2021/05/04 03:02:50;;;;;;;3.92;2.80;;;10.90;99.90;;;;;;5078287;28;20043;-72
2021/05/04 03:05:16;;;;;;;5.15;2.80;;;10.90;99.90;;;;;;5074121;28;20081;-72
2021/05/04 03:07:42;;;;;;;5.38;2.97;;;10.80;99.90;;;;;;5077230;28;20032;-71
2021/05/04 03:10:09;;;;;;;2.92;2.35;;;10.80;99.90;;;;;;5085439;28;20385;-71
2021/05/04 03:12:34;;;;;;;4.53;2.97;;;10.70;99.90;;;;;;5076840;28;20013;-72
2021/05/04 03:15:00;;;;;;;4.80;3.20;;;10.70;99.90;;;;;;5073438;28;20169;-72
2021/05/04 03:17:26;;;;;;;7.22;2.88;;;10.80;99.90;;;;;;5080163;28;20099;-72
2021/05/04 03:19:51;;;;;;;3.50;2.90;;;10.80;99.90;;;;;;5058521;28;20488;-71
2021/05/04 03:22:17;;;;;;;4.10;2.38;;;10.80;99.90;;;;;;5081639;28;20016;-72
2021/05/04 03:24:43;;;;;;;3.45;2.60;;;10.80;99.90;;;;;;5073603;28;20075;-72
2021/05/04 03:27:08;;;;;;;5.25;2.25;;;10.70;99.90;;;;;;5075820;28;20074;-72
2021/05/04 03:29:34;;;;;;;2.65;2.35;;;10.70;99.90;;;;;;5079569;28;20088;-71
2021/05/04 03:32:00;;;;;;;3.72;2.33;;;10.70;99.90;;;;;;5086997;28;20017;-72
2021/05/04 03:34:26;;;;;;;6.13;2.20;;;10.60;99.90;;;;;;5085722;28;20032;-71
2021/05/04 03:36:52;;;;;;;5.40;2.75;;;10.70;99.90;;;;;;5075657;28;20078;-71
2021/05/04 03:39:18;;;;;;;4.10;2.90;;;10.70;99.90;;;;;;5073583;28;20037;-72
2021/05/04 03:41:43;;;;;;;5.43;3.20;;;10.70;99.90;;;;;;5078576;28;20492;-71
2021/05/04 03:44:09;;;;;;;3.65;2.80;;;10.60;99.90;;;;;;5074808;28;20389;-72
2021/05/04 03:46:34;;;;;;;4.47;2.40;;;10.70;99.90;;;;;;5087813;28;20529;-71
2021/05/04 03:49:00;;;;;;;5.85;2.80;;;10.70;99.90;;;;;;5086611;28;20032;-72
2021/05/04 03:51:26;;;;;;;3.35;2.03;;;10.60;99.90;;;;;;5075156;28;20025;-72
2021/05/04 03:53:52;;;;;;;5.15;2.50;;;10.70;99.90;;;;;;5076214;28;20031;-71
2021/05/04 03:56:18;;;;;;;3.53;2.20;;;10.80;99.90;;;;;;5076415;28;20056;-71
2021/05/04 03:58:43;;;;;;;9.70;2.55;;;10.60;99.90;;;;;;5083404;28;20054;-71
2021/05/04 04:01:09;;;;;;;4.25;2.65;;;10.60;99.90;;;;;;5080060;28;20095;-72
2021/05/04 04:03:35;;;;;;;5.53;2.65;;;10.60;99.90;;;;;;5075906;28;20017;-72
2021/05/04 04:06:00;;;;;;;6.32;2.47;;;10.50;99.90;;;;;;5071981;28;20505;-72
2021/05/04 04:08:26;;;;;;;3.30;2.08;;;10.50;99.90;;;;;;5077478;28;20039;-72
2021/05/04 04:10:52;;;;;;;5.43;2.33;;;10.60;99.90;;;;;;5086240;28;20030;-72
2021/05/04 04:13:17;;;;;;;4.18;2.83;;;10.60;99.90;;;;;;5077338;28;20087;-71
2021/05/04 04:15:43;;;;;;;3.28;2.50;;;10.60;99.90;;;;;;5074501;28;20060;-71
2021/05/04 04:18:09;;;;;;;3.78;2.03;;;10.60;99.90;;;;;;5066865;28;20477;-71
2021/05/04 04:20:35;;;;;;;2.45;2.17;;;10.50;99.90;;;;;;5078809;28;20021;-71
2021/05/04 04:23:00;;;;;;;4.00;2.53;;;10.50;99.90;;;;;;5076039;28;20103;-71
2021/05/04 04:25:26;;;;;;;5.03;2.10;;;10.50;99.90;;;;;;5072994;28;20044;-71
2021/05/04 04:27:52;;;;;;;5.00;2.45;;;10.60;99.90;;;;;;5071476;28;20033;-71
2021/05/04 04:30:19;;;;;;;4.40;2.50;;;10.60;99.90;;;;;;5083478;28;20052;-71
2021/05/04 04:32:45;;;;;;;3.10;2.28;;;10.60;99.90;;;;;;5077279;28;20021;-71
2021/05/04 04:35:12;;;;;;;6.10;2.78;;;10.50;99.90;;;;;;5067209;28;20075;-71
2021/05/04 04:37:37;;;;;;;3.40;2.35;;;10.60;99.90;;;;;;5069727;28;20075;-72
2021/05/04 04:40:05;;;;;;;2.45;2.08;;;10.60;99.90;;;;;;5083245;28;20032;-72
2021/05/04 04:42:31;;;;;;;2.55;2.35;;;10.60;99.90;;;;;;5084409;28;20024;-72
2021/05/04 04:44:56;;;;;;;3.53;2.50;;;10.70;99.90;;;;;;5077470;28;20079;-71
2021/05/04 04:47:22;;;;;;;4.43;2.30;;;10.70;99.90;;;;;;5069298;28;20028;-71
2021/05/04 04:49:48;;;;;;;6.78;2.60;;;10.60;99.90;;;;;;5087142;28;20028;-71
2021/05/04 04:52:14;;;;;;;4.57;3.28;;;10.60;99.90;;;;;;5077728;28;20032;-71
2021/05/04 04:54:40;;;;;;;5.38;2.78;;;10.60;99.90;;;;;;5077222;28;20021;-71
2021/05/04 04:57:06;;;;;;;2.38;2.17;;;10.70;99.90;;;;;;5069535;28;20017;-71
2021/05/04 04:59:33;;;;;;;3.13;2.88;;;10.60;99.90;;;;;;5081936;28;20099;-72
2021/05/04 05:01:58;;;;;;;4.97;2.72;;;10.70;99.90;;;;;;5089216;28;20035;-72
2021/05/04 05:04:24;;;;;;;5.75;3.28;;;10.70;99.90;;;;;;5090309;28;20028;-72
2021/05/04 05:06:50;;;;;;;4.88;2.33;;;10.70;99.90;;;;;;5083860;28;20028;-72
2021/05/04 05:09:16;;;;;;;3.20;2.90;;;10.70;99.90;;;;;;5079042;28;20044;-72
2021/05/04 05:11:41;;;;;;;4.13;2.60;;;10.60;99.90;;;;;;5073384;28;20090;-72
2021/05/04 05:14:08;;;;;;;2.78;2.38;;;10.60;99.90;;;;;;5087206;28;20465;-72
2021/05/04 05:16:35;;;;;;;3.20;2.30;;;10.60;99.90;;;;;;5080748;28;20045;-72
2021/05/04 05:19:00;;;;;;;4.53;2.20;;;10.60;99.90;;;;;;5084490;28;20012;-72
2021/05/04 05:21:26;;;;;;;4.65;2.63;;;10.70;99.90;;;;;;5074417;28;20082;-71
2021/05/04 05:23:53;;;;;;;5.47;2.85;;;10.60;99.90;;;;;;5078625;28;20422;-71
2021/05/04 05:26:20;;;;;;;3.85;2.28;;;10.60;99.90;;;;;;5079533;28;20131;-71
2021/05/04 05:28:45;;;;;;;3.55;3.00;;;10.60;99.90;;;;;;5075218;28;20027;-71
2021/05/04 05:31:12;;;;;;;6.30;2.95;;;10.70;99.90;;;;;;5088232;28;20027;-72
2021/05/04 05:33:38;;;;;;;8.93;3.10;;;10.70;99.90;;;;;;5086675;28;20027;-72
2021/05/04 05:36:04;;;;;;;2.85;2.22;;;10.70;99.90;;;;;;5072034;28;20095;-71
2021/05/04 05:38:30;;;;;;;4.28;2.20;;;10.70;99.90;;;;;;5071381;28;20016;-72
2021/05/04 05:40:57;;;;;;;2.75;2.50;;;10.70;99.90;;;;;;5083966;28;20050;-72
2021/05/04 05:43:23;;;;;;;5.32;2.50;;;10.80;99.90;;;;;;5094410;28;20021;-72
2021/05/04 05:45:49;;;;;;;4.10;2.80;;;10.90;99.90;;;;;;5056846;28;20044;-72
2021/05/04 05:48:15;;;;;;;4.68;2.25;;;10.80;99.90;;;;;;5090074;28;20099;-72
2021/05/04 05:50:41;;;;;;;4.93;2.55;;;10.90;99.90;;;;;;5085421;28;20234;-72
2021/05/04 05:53:07;;;;;;;4.15;1.95;;;10.90;99.90;;;;;;5079781;28;20487;-72
2021/05/04 05:55:33;;;;;;;3.28;2.45;;;10.90;99.90;;;;;;5077726;28;20089;-72
2021/05/04 05:57:59;;;;;;;2.90;1.75;;;11.00;99.90;;;;;;5068092;28;20048;-71
2021/05/04 06:00:26;;;;;;;4.13;2.13;;;11.00;99.90;;;;;;5083543;28;20469;-72
2021/05/04 06:02:52;;;;;;;3.03;1.90;;;11.00;99.90;;;;;;5069083;28;20052;-72
2021/05/04 06:05:17;;;;;;;7.03;1.92;;;11.00;99.90;;;;;;5075391;28;20029;-71
2021/05/04 06:07:43;;;;;;;5.97;2.55;;;11.00;99.90;;;;;;5076740;28;20033;-71
2021/05/04 06:10:09;;;;;;;6.07;2.05;;;11.00;99.90;;;;;;5086061;28;20048;-72
2021/05/04 06:12:35;;;;;;;3.38;2.10;;;11.10;99.90;;;;;;5082564;28;20044;-71
2021/05/04 06:15:01;;;;;;;5.72;2.50;;;11.00;99.90;;;;;;5072453;28;20053;-71
2021/05/04 06:17:27;;;;;;;4.28;2.22;;;11.00;99.90;;;;;;5066039;28;20358;-71
2021/05/04 06:19:52;;;;;;;5.95;2.40;;;11.20;99.90;;;;;;5082515;28;20067;-75
2021/05/04 06:22:18;;;;;;;5.75;2.67;;;11.10;99.90;;;;;;5065264;28;20069;-71
2021/05/04 06:24:45;;;;;;;3.15;2.08;;;11.10;99.90;;;;;;5078037;28;20124;-71
2021/05/04 06:27:11;;;;;;;3.55;2.20;;;11.20;99.90;;;;;;5072616;28;20358;-71
2021/05/04 06:29:37;;;;;;;4.63;2.20;;;11.10;99.90;;;;;;5062727;28;20023;-71
2021/05/04 06:32:14;;;;;;;2.83;2.28;;;11.10;99.90;;;;;;5081173;28;20388;-71
2021/05/04 06:34:41;;;;;;;3.42;2.78;;;11.20;99.90;;;;;;5080084;28;20020;-71
2021/05/04 06:37:07;;;;;;;2.38;2.10;;;11.20;99.90;;;;;;5080316;28;20548;-71
2021/05/04 06:39:33;;;;;;;3.88;2.13;;;11.20;99.90;;;;;;5053637;28;20128;-71
2021/05/04 06:41:58;;;;;;;5.53;2.28;;;11.20;99.90;;;;;;5075729;28;20009;-72
2021/05/04 06:44:24;;;;;;;3.60;2.20;;;11.30;99.90;;;;;;5057191;28;20085;-72
2021/05/04 06:46:50;;;;;;;3.58;1.80;;;11.20;99.90;;;;;;5074126;28;20366;-71
2021/05/04 06:49:16;;;;;;;2.15;1.42;;;11.20;99.90;;;;;;5080167;28;20142;-71
2021/05/04 06:51:42;;;;;;;2.17;1.70;;;11.20;99.90;;;;;;5075005;28;20077;-72
2021/05/04 06:54:07;;;;;;;2.33;1.80;;;11.20;99.90;;;;;;5076569;28;20059;-72
2021/05/04 06:56:33;;;;;;;2.28;1.27;;;11.20;99.90;;;;;;5088198;28;20027;-71
2021/05/04 06:58:59;;;;;;;3.20;1.80;;;11.30;99.90;;;;;;5079367;28;20020;-71
2021/05/04 07:01:25;;;;;;;4.45;1.80;;;11.20;99.90;;;;;;5079270;28;20035;-71
2021/05/04 07:03:52;;;;;;;3.35;2.10;;;11.20;99.90;;;;;;5063018;28;20535;-71
2021/05/04 07:06:18;;;;;;;4.43;2.30;;;11.30;99.90;;;;;;5064480;28;20025;-71
2021/05/04 07:08:44;;;;;;;2.60;2.13;;;11.30;99.90;;;;;;5059383;28;20035;-71
2021/05/04 07:11:09;;;;;;;6.50;1.92;;;11.40;99.90;;;;;;5078539;28;20099;-71
2021/05/04 07:13:35;;;;;;;4.43;1.85;;;11.50;99.90;;;;;;5070959;28;20023;-72
2021/05/04 07:16:01;;;;;;;5.13;2.28;;;11.50;99.90;;;;;;5074046;28;20096;-72
2021/05/04 07:18:27;;;;;;;6.93;2.50;;;11.60;99.90;;;;;;5062786;28;20035;-71
2021/05/04 07:20:52;;;;;;;5.53;2.25;;;11.60;99.90;;;;;;5088357;28;20020;-71
2021/05/04 07:23:18;;;;;;;2.83;1.83;;;11.50;99.90;;;;;;5080783;28;20024;-71
2021/05/04 07:25:44;;;;;;;9.05;2.70;;;11.50;99.90;;;;;;5072579;28;20063;-72
2021/05/04 07:28:10;;;;;;;5.30;2.75;;;11.50;99.90;;;;;;5085927;28;20016;-71
2021/05/04 07:30:42;;;;;;;6.15;2.83;;;11.40;99.90;;;;;;5085129;28;20042;-71
2021/05/04 07:33:08;;;;;;;4.70;2.90;;;11.40;99.90;;;;;;5083985;28;20016;-72
2021/05/04 07:35:34;;;;;;;4.75;3.00;;;11.40;99.90;;;;;;5056061;28;20278;-72
2021/05/04 07:38:00;;;;;;;4.82;2.50;;;11.20;99.90;;;;;;5049423;28;20539;-72
2021/05/04 07:40:25;;;;;;;4.05;2.85;;;11.20;99.90;;;;;;5067120;28;20079;-72
2021/05/04 07:42:51;;;;;;;8.88;3.20;;;11.20;99.90;;;;;;5057427;28;20016;-72
2021/05/04 07:45:17;;;;;;;3.20;2.83;;;11.40;99.90;;;;;;5084055;28;20028;-71
2021/05/04 07:47:44;;;;;;;5.57;2.97;;;11.40;99.90;;;;;;5069216;28;20099;-71
2021/05/04 07:50:11;;;;;;;7.72;3.17;;;11.30;99.90;;;;;;5076094;28;20060;-72
2021/05/04 07:52:38;;;;;;;4.35;3.13;;;11.30;99.90;;;;;;5065765;28;20107;-71
2021/05/04 07:55:07;;;;;;;7.70;2.67;;;11.40;99.90;;;;;;5088087;28;20056;-71
2021/05/04 07:57:33;;;;;;;3.50;2.95;;;11.30;99.90;;;;;;5044036;28;20054;-71
2021/05/04 07:59:59;;;;;;;6.75;3.67;;;11.20;99.90;;;;;;5063435;28;20064;-72
2021/05/04 08:02:24;;;;;;;10.13;4.43;;;11.30;99.90;;;;;;5056467;28;20032;-71
2021/05/04 08:04:50;;;;;;;8.07;4.80;;;11.40;99.90;;;;;;5065897;28;20052;-71
2021/05/04 08:07:17;;;;;;;8.65;4.50;;;11.50;99.90;;;;;;5077147;28;20028;-72
2021/05/04 08:09:42;;;;;;;6.53;4.38;;;11.50;99.90;;;;;;5070949;28;20466;-72
2021/05/04 08:12:08;;;;;;;9.02;5.18;;;11.60;99.90;;;;;;5079119;28;20036;-71
2021/05/04 08:14:34;;;;;;;10.40;5.25;;;11.80;99.90;;;;;;5081743;28;20038;-71
2021/05/04 08:17:00;;;;;;;7.05;4.28;;;11.90;99.90;;;;;;5075932;28;20033;-72
2021/05/04 08:19:26;;;;;;;11.43;4.32;;;12.00;99.90;;;;;;5072594;28;20036;-71
2021/05/04 08:21:52;;;;;;;8.20;3.80;;;12.30;99.90;;;;;;5076198;28;20024;-71
2021/05/04 08:24:18;;;;;;;7.45;3.60;;;12.40;99.90;;;;;;5081497;28;20024;-71
2021/05/04 08:26:44;;;;;;;12.85;3.47;;;12.60;99.90;;;;;;5066057;28;20040;-71
2021/05/04 08:29:10;;;;;;;6.60;2.78;;;12.70;99.90;;;;;;5053837;28;20024;-71
2021/05/04 08:31:39;;;;;;;9.50;2.78;;;12.70;99.90;;;;;;5073919;28;20378;-71
2021/05/04 08:34:05;;;;;;;8.75;2.65;;;12.80;99.90;;;;;;5071884;28;20040;-71
2021/05/04 08:36:31;;;;;;;15.65;3.50;;;12.90;99.90;;;;;;5044615;28;20021;-71
2021/05/04 08:38:57;;;;;;;10.13;2.30;;;13.00;99.90;;;;;;5082890;28;20028;-71
2021/05/04 08:41:24;;;;;;;9.45;2.40;;;13.10;99.90;;;;;;5081060;28;20028;-72
2021/05/04 08:43:52;;;;;;;9.52;2.75;;;13.00;99.90;;;;;;5076999;28;20027;-71
2021/05/04 08:46:20;;;;;;;10.98;2.55;;;12.60;99.90;;;;;;5075540;28;20039;-71
2021/05/04 08:48:47;;;;;;;15.48;3.17;;;12.60;99.90;;;;;;5071682;28;20020;-71
2021/05/04 08:51:14;;;;;;;13.98;3.28;;;12.60;99.90;;;;;;5075817;28;20111;-71
2021/05/04 08:53:40;;;;;;;11.25;3.35;;;12.40;99.90;;;;;;5076171;28;20017;-71
2021/05/04 08:56:14;;;;;;;18.58;3.00;;;12.40;99.90;;;;;;5082367;28;20035;-71
2021/05/04 08:58:43;;;;;;;13.02;3.00;;;12.40;99.90;;;;;;5083947;28;20081;-71
2021/05/04 09:01:09;;;;;;;17.98;3.45;;;12.30;99.90;;;;;;5076125;28;20021;-70
2021/05/04 09:03:46;;;;;;;15.88;3.30;;;12.30;99.90;;;;;;5059589;28;20020;-71
2021/05/04 09:17:16;;;;;;;5.07;1.60;;;11.90;99.90;;;;;;5085949;28;20047;-72
2021/05/04 09:20:05;;;;;;;7.40;1.67;;;12.20;99.90;;;;;;5078203;28;20095;-72
2021/05/04 09:22:42;;;;;;;7.00;2.10;;;12.30;99.90;;;;;;5055272;28;20024;-71
2021/05/04 09:25:43;;;;;;;12.05;2.78;;;12.20;99.90;;;;;;5068793;28;20568;-71
2021/05/04 09:28:13;;;;;;;10.10;2.88;;;12.30;99.90;;;;;;4995524;28;20026;-71
2021/05/04 09:30:39;;;;;;;13.18;2.75;;;12.40;99.90;;;;;;5061206;28;20037;-71
2021/05/04 09:33:10;;;;;;;11.40;2.70;;;12.50;99.90;;;;;;5054902;28;20020;-70
2021/05/04 09:35:37;;;;;;;11.05;2.92;;;12.60;99.90;;;;;;5063022;28;20373;-70
2021/05/04 09:38:05;;;;;;;19.95;3.25;;;12.70;99.90;;;;;;5066789;28;20040;-71
2021/05/04 09:40:36;;;;;;;13.63;2.72;;;12.80;99.90;;;;;;5063692;28;20063;-71
2021/05/04 09:43:16;;;;;;;12.67;3.07;;;13.20;99.90;;;;;;5064405;28;20025;-71
2021/05/04 09:45:44;;;;;;;15.10;3.70;;;13.10;99.90;;;;;;5063948;28;20032;-71
2021/05/04 09:48:15;;;;;;;10.45;3.13;;;13.00;99.90;;;;;;5062244;28;20017;-71
2021/05/04 09:50:51;;;;;;;14.75;2.92;;;13.10;99.90;;;;;;5064077;28;20012;-72
2021/05/04 09:53:24;;;;;;;10.13;2.88;;;13.30;99.90;;;;;;5065252;28;20032;-71
2021/05/04 09:55:56;;;;;;;12.32;2.20;;;13.30;99.90;;;;;;5074249;28;20033;-72
2021/05/04 09:58:35;;;;;;;15.80;2.58;;;13.20;99.90;;;;;;5071224;28;20024;-73
2021/05/04 10:01:03;;;;;;;13.27;2.55;;;13.20;99.90;;;;;;5067400;28;20620;-72
2021/05/04 10:03:29;;;;;;;12.02;2.33;;;13.10;99.90;;;;;;5061494;28;20078;-74
2021/05/04 10:05:58;;;;;;;15.65;2.30;;;13.20;99.90;;;;;;5047223;28;20029;-74
2021/05/04 10:08:27;;;;;;;11.25;2.47;;;13.10;99.90;;;;;;5056986;28;20051;-72
2021/05/04 10:10:54;;;;;;;14.18;2.80;;;13.10;99.90;;;;;;5070330;28;20157;-72
2021/05/04 10:13:20;;;;;;;8.38;2.00;;;13.10;99.90;;;;;;5045158;28;20027;-72
2021/05/04 10:15:47;;;;;;;14.50;3.00;;;13.10;99.90;;;;;;5049269;28;20020;-74
2021/05/04 10:18:13;;;;;;;13.95;2.50;;;12.90;99.90;;;;;;5071126;28;20051;-73
2021/05/04 10:20:41;;;;;;;14.38;2.20;;;13.10;99.90;;;;;;5073900;28;20035;-74
2021/05/04 10:23:11;;;;;;;9.45;2.67;;;13.20;99.90;;;;;;5062752;28;20096;-72
2021/05/04 10:25:37;;;;;;;12.82;2.42;;;13.10;99.90;;;;;;5067595;28;20031;-74
2021/05/04 10:28:04;;;;;;;8.57;2.13;;;13.10;99.90;;;;;;5056674;28;20029;-73
2021/05/04 10:30:30;;;;;;;9.27;2.35;;;12.90;99.90;;;;;;5073349;28;20024;-73
2021/05/04 10:33:16;;;;;;;11.00;2.72;;;12.80;99.90;;;;;;5051173;28;20469;-71
2021/05/04 10:35:45;;;;;;;9.98;2.33;;;12.50;99.90;;;;;;5071102;28;20021;-72
2021/05/04 10:38:16;;;;;;;13.77;3.03;;;12.10;99.90;;;;;;5077127;28;20149;-72
2021/05/04 10:40:46;;;;;;;11.18;2.33;;;12.10;99.90;;;;;;5075869;28;20504;-72
2021/05/04 10:43:21;;;;;;;12.45;3.22;;;12.00;99.90;;;;;;5050493;28;20028;-72
2021/05/04 10:45:48;;;;;;;9.70;3.10;;;12.20;99.90;;;;;;5078593;28;20040;-72
2021/05/04 10:48:13;;;;;;;9.63;2.47;;;12.60;99.90;;;;;;5076819;28;20020;-73
2021/05/04 10:50:51;;;;;;;12.13;2.17;;;13.00;99.90;;;;;;5070963;28;20085;-71
2021/05/04 10:53:21;;;;;;;10.52;3.17;;;13.10;99.90;;;;;;5070977;28;20021;-72
2021/05/04 10:55:56;;;;;;;8.60;2.03;;;13.10;99.90;;;;;;5072672;28;20093;-72
2021/05/04 10:58:23;;;;;;;9.20;2.00;;;13.00;99.90;;;;;;5064708;28;20043;-72
2021/05/04 11:00:49;;;;;;;6.78;1.88;;;12.80;99.90;;;;;;5067919;28;20024;-72
2021/05/04 11:03:30;;;;;;;8.52;1.52;;;12.70;99.90;;;;;;5073544;28;20081;-72
2021/05/04 11:05:57;;;;;;;7.43;1.65;;;12.70;99.90;;;;;;5073388;28;20047;-73
2021/05/04 11:08:24;;;;;;;8.20;2.22;;;12.80;99.90;;;;;;5062055;28;20104;-72
2021/05/04 11:11:18;;;;;;;7.78;1.70;;;12.80;99.90;;;;;;5071382;28;20530;-72
2021/05/04 11:13:51;;;;;;;7.82;1.70;;;12.80;99.90;;;;;;5055156;28;20391;-72
2021/05/04 11:16:46;;;;;;;6.88;1.67;;;12.80;99.90;;;;;;5063742;28;20035;-73
2021/05/04 11:19:30;;;;;;;8.50;2.42;;;12.80;99.90;;;;;;5049922;28;20044;-72
2021/05/04 11:21:59;;;;;;;7.70;1.80;;;12.70;99.90;;;;;;5065167;28;20481;-71
2021/05/04 11:24:34;;;;;;;10.80;2.67;;;12.80;99.90;;;;;;5063060;28;20618;-72
2021/05/04 11:27:03;;;;;;;11.20;2.05;;;12.90;99.90;;;;;;5063998;28;20028;-72
2021/05/04 11:29:32;;;;;;;11.38;1.88;;;12.70;99.90;;;;;;5071415;28;20062;-72
2021/05/04 11:32:15;;;;;;;7.47;2.47;;;12.70;99.90;;;;;;5067563;28;20028;-73
2021/05/04 11:34:44;;;;;;;6.20;2.13;;;12.90;99.90;;;;;;5065399;28;20021;-73
2021/05/04 11:37:18;;;;;;;6.85;2.08;;;13.40;99.90;;;;;;5063402;28;20039;-70
2021/05/04 11:39:52;;;;;;;8.30;2.10;;;13.80;99.90;;;;;;5052311;28;20544;-71
2021/05/04 11:42:18;;;;;;;9.38;2.10;;;14.10;99.90;;;;;;5069701;28;20017;-70
2021/05/04 11:44:44;;;;;;;5.22;1.33;;;14.10;99.90;;;;;;5069841;28;20024;-71
2021/05/04 11:47:30;;;;;;;6.97;1.83;;;13.90;99.90;;;;;;5066507;28;20067;-70
2021/05/04 11:50:16;;;;;;;4.75;1.20;;;13.80;99.90;;;;;;5058764;28;20151;-72
2021/05/04 11:52:44;;;;;;;6.80;1.63;;;13.90;99.90;;;;;;5069175;28;20028;-72
2021/05/04 11:55:32;;;;;;;6.75;1.75;;;14.00;99.90;;;;;;5064665;28;20024;-71
2021/05/04 11:58:03;;;;;;;7.10;1.88;;;14.40;99.90;;;;;;5061425;28;20033;-72
2021/05/04 12:00:31;;;;;;;11.45;1.42;;;14.40;99.90;;;;;;5064793;28;20031;-72
2021/05/04 12:03:08;;;;;;;5.72;1.23;;;14.50;99.90;;;;;;5071334;28;20032;-73
2021/05/04 12:05:34;;;;;;;6.85;1.33;;;14.30;99.90;;;;;;5060146;28;20040;-72
2021/05/04 12:08:00;;;;;;;8.20;1.40;;;14.10;99.90;;;;;;5064907;28;20028;-72
2021/05/04 12:10:27;;;;;;;6.47;1.45;;;14.10;99.90;;;;;;5063964;28;20032;-71
2021/05/04 12:12:57;;;;;;;7.72;1.65;;;14.10;99.90;;;;;;5067880;28;20021;-73
2021/05/04 12:15:27;;;;;;;9.70;1.98;;;14.10;99.90;;;;;;5066998;28;20037;-72
2021/05/04 12:18:18;;;;;;;6.15;2.00;;;14.00;99.90;;;;;;5075403;28;20113;-72
2021/05/04 12:20:50;;;;;;;6.93;1.50;;;14.30;99.90;;;;;;5062830;28;20041;-72
2021/05/04 12:23:26;;;;;;;5.88;2.00;;;14.30;99.90;;;;;;5062004;28;20021;-71
2021/05/04 12:26:07;;;;;;;6.35;1.40;;;14.40;99.90;;;;;;5068908;28;20040;-72
2021/05/04 12:28:36;;;;;;;6.90;1.75;;;14.20;99.90;;;;;;5055625;28;20041;-70
2021/05/04 12:31:06;;;;;;;11.27;1.98;;;14.10;99.90;;;;;;5067959;28;20032;-72
2021/05/04 12:33:33;;;;;;;4.80;1.40;;;14.10;99.90;;;;;;5069097;28;21927;-72
2021/05/04 12:36:02;;;;;;;7.93;1.70;;;14.10;99.90;;;;;;5059460;28;20132;-70
2021/05/04 12:38:36;;;;;;;7.90;1.60;;;14.00;99.90;;;;;;5070229;28;20021;-70
2021/05/04 12:41:10;;;;;;;3.28;1.33;;;14.00;99.90;;;;;;5069689;28;20020;-71
2021/05/04 12:43:46;;;;;;;8.25;1.45;;;13.90;99.90;;;;;;5070890;28;20036;-71
2021/05/04 12:46:24;;;;;;;7.25;1.25;;;13.80;99.90;;;;;;5059939;28;20040;-70
2021/05/04 12:48:54;;;;;;;2.78;1.10;;;13.80;99.90;;;;;;5067508;28;20039;-70
2021/05/04 12:51:31;;;;;;;5.20;1.40;;;13.90;99.90;;;;;;5049304;28;20017;-70
2021/05/04 12:54:14;;;;;;;4.75;1.30;;;13.70;99.90;;;;;;5068436;28;20040;-71
2021/05/04 12:56:40;;;;;;;6.82;1.38;;;13.70;99.90;;;;;;5073417;28;20504;-71
2021/05/04 12:59:10;;;;;;;10.07;1.30;;;13.70;99.90;;;;;;5073176;28;20024;-74